Terminal Aerodrome Forecast
Issued by NWS

Home | Current Version | Previous Version | Text Only | Print | Product List | Glossary On
Versions: 1 2 3 4 5 6 7 8 9 10 11 12 13 14 15 16 17 18 19 20 21 22 23 24 25 26 27 28
470
FTUS46 KEKA 241734
TAFCEC
TAF
KCEC 241734Z 2418/2518 20010KT P6SM -SHRA FEW010 SCT025 OVC050
     FM242200 21008KT P6SM VCSH SCT030 OVC060
     FM250600 VRB05KT P6SM VCSH SCT030 OVC050
     FM251700 06005KT P6SM SCT050 BKN100=

USA.gov is the U.S. government's official web portal to all federal, state and local government web resources and services.